Time;durP1;ratioP1;P1;durP2;ratioP2;P2;SDS_P1;SDS_P2;PMS_P1;PMS_P2;Temp;Humidity;BMP_temperature;BMP_pressure;BME280_temperature;BME280_humidity;BME280_pressure;Samples;Min_cycle;Max_cycle;Signal;HPM_P1;HPM_P2
2021/10/27 00:01:45;;;;;;;43.75;26.88;;;;;;;3.48;70.36;94225.41;5091724;28;20492;-47
2021/10/27 00:04:11;;;;;;;46.30;27.20;;;;;;;3.56;70.31;94218.28;5091618;28;20020;-48
2021/10/27 00:06:37;;;;;;;42.10;25.88;;;;;;;3.56;70.44;94208.13;5091351;28;20139;-46
2021/10/27 00:09:03;;;;;;;44.25;26.00;;;;;;;3.61;70.54;94201.97;5091430;28;20043;-45
2021/10/27 00:11:30;;;;;;;45.78;29.35;;;;;;;3.50;70.11;94193.69;5091478;28;20393;-48
2021/10/27 00:13:55;;;;;;;52.33;30.73;;;;;;;3.39;70.92;94214.66;5091528;28;20024;-46
2021/10/27 00:16:21;;;;;;;47.88;29.10;;;;;;;3.20;71.56;94219.72;5091034;28;20508;-47
2021/10/27 00:18:46;;;;;;;42.97;26.55;;;;;;;3.45;70.62;94218.94;5102916;28;20102;-48
2021/10/27 00:21:12;;;;;;;47.83;27.77;;;;;;;3.42;71.44;94221.91;5111329;28;20027;-46
2021/10/27 00:23:38;;;;;;;43.10;26.92;;;;;;;3.33;71.42;94214.63;5111392;28;20023;-48
2021/10/27 00:26:03;;;;;;;37.92;24.55;;;;;;;3.44;70.77;94220.19;5111293;28;20031;-46
2021/10/27 00:28:28;;;;;;;38.85;24.80;;;;;;;3.41;71.36;94221.16;5111112;28;20027;-46
2021/10/27 00:30:54;;;;;;;38.75;25.05;;;;;;;3.42;70.62;94217.16;5111461;28;20015;-49
2021/10/27 00:33:19;;;;;;;44.58;25.98;;;;;;;3.47;70.54;94213.75;5111153;28;20465;-46
2021/10/27 00:35:45;;;;;;;38.90;23.58;;;;;;;3.40;70.37;94213.44;5111440;28;20023;-44
2021/10/27 00:38:10;;;;;;;47.85;28.58;;;;;;;3.32;71.36;94220.56;5111083;28;20012;-47
2021/10/27 00:40:36;;;;;;;47.10;27.15;;;;;;;3.12;71.96;94207.72;5103992;28;20081;-46
2021/10/27 00:43:01;;;;;;;43.47;26.88;;;;;;;2.91;72.19;94201.59;5090966;28;20038;-48
2021/10/27 00:45:26;;;;;;;38.05;24.33;;;;;;;2.88;72.18;94202.53;5090822;28;20409;-48
2021/10/27 00:47:52;;;;;;;39.22;24.02;;;;;;;2.66;73.14;94198.84;5090896;28;20081;-49
2021/10/27 00:50:17;;;;;;;37.00;23.42;;;;;;;2.47;73.64;94176.56;5090823;28;20020;-47
2021/10/27 00:52:43;;;;;;;34.67;22.55;;;;;;;2.38;73.89;94200.50;5090520;28;20032;-47
2021/10/27 00:55:09;;;;;;;35.42;24.13;;;;;;;2.52;73.88;94197.69;5090848;28;20020;-48
2021/10/27 00:57:36;;;;;;;36.97;24.25;;;;;;;2.66;73.34;94196.88;5090452;28;20028;-48
2021/10/27 01:00:04;;;;;;;32.88;21.73;;;;;;;2.73;73.30;94201.88;5090755;28;20020;-47
2021/10/27 01:02:30;;;;;;;23.77;17.10;;;;;;;2.80;72.91;94195.25;5090726;28;20020;-45
2021/10/27 01:04:55;;;;;;;24.42;14.95;;;;;;;2.81;72.12;94188.59;5090539;28;20028;-46
2021/10/27 01:07:21;;;;;;;22.08;14.20;;;;;;;2.91;71.65;94190.69;5090333;28;20058;-49
2021/10/27 01:09:46;;;;;;;25.35;14.55;;;;;;;2.79;72.12;94189.09;5090594;28;20020;-47
2021/10/27 01:12:12;;;;;;;29.55;18.05;;;;;;;2.82;71.91;94182.66;5090581;28;20024;-48
2021/10/27 01:14:43;;;;;;;31.85;20.98;;;;;;;2.66;72.86;94185.97;5090373;28;20023;-49
2021/10/27 01:17:11;;;;;;;33.00;19.38;;;;;;;2.55;73.17;94187.81;5090518;28;20082;-46
2021/10/27 01:19:58;;;;;;;30.35;16.88;;;;;;;2.58;72.80;94184.16;5108822;28;20500;-48
2021/10/27 01:22:28;;;;;;;31.38;19.38;;;;;;;2.59;72.46;94189.09;5110482;28;20108;-45
2021/10/27 01:24:54;;;;;;;25.00;17.95;;;;;;;2.50;73.20;94188.50;5110887;28;20023;-44
2021/10/27 01:27:21;;;;;;;20.42;14.65;;;;;;;2.40;72.57;94178.97;5098188;28;20076;-46
2021/10/27 01:29:46;;;;;;;34.33;20.00;;;;;;;2.20;72.23;94177.75;5095554;28;20024;-46
2021/10/27 01:32:27;;;;;;;26.55;14.13;;;;;;;2.20;72.21;94183.22;5099371;28;20556;-46
2021/10/27 01:34:53;;;;;;;23.17;14.15;;;;;;;2.22;72.11;94190.91;5090097;28;20509;-47
2021/10/27 01:37:19;;;;;;;20.52;13.63;;;;;;;2.25;71.86;94189.94;5100273;28;20020;-48
2021/10/27 01:39:46;;;;;;;26.63;15.55;;;;;;;2.23;71.07;94181.50;5110650;28;20020;-46
2021/10/27 01:42:12;;;;;;;29.75;17.27;;;;;;;2.28;71.20;94188.97;5110565;28;20106;-44
2021/10/27 01:44:37;;;;;;;21.50;14.63;;;;;;;1.64;72.81;94185.66;5110297;28;20086;-44
2021/10/27 01:47:03;;;;;;;25.25;16.08;;;;;;;1.36;74.09;94186.00;5107334;28;20035;-49
2021/10/27 01:49:28;;;;;;;25.83;14.68;;;;;;;1.48;74.01;94184.94;5110617;28;20072;-49
2021/10/27 01:51:55;;;;;;;27.58;17.58;;;;;;;1.63;73.11;94186.88;5110552;28;20034;-48
2021/10/27 01:54:21;;;;;;;27.10;16.50;;;;;;;1.77;73.17;94178.69;5110266;28;20108;-52
2021/10/27 01:56:46;;;;;;;17.85;12.10;;;;;;;1.73;72.86;94191.75;5110623;28;20048;-50
2021/10/27 01:59:12;;;;;;;12.68;8.25;;;;;;;1.61;72.38;94194.75;5110500;28;20480;-49
2021/10/27 02:01:37;;;;;;;11.00;7.88;;;;;;;1.67;71.43;94195.59;5110309;28;20590;-46
2021/10/27 02:04:03;;;;;;;11.23;7.55;;;;;;;1.65;71.41;94200.75;5110438;28;20020;-49
2021/10/27 02:06:29;;;;;;;10.13;7.38;;;;;;;1.29;72.76;94196.50;5110517;28;20020;-48
2021/10/27 02:08:54;;;;;;;11.95;8.48;;;;;;;1.33;73.23;94200.53;5110177;28;20012;-46
2021/10/27 02:11:20;;;;;;;16.58;10.35;;;;;;;1.38;73.74;94196.41;5110512;28;20076;-45
2021/10/27 02:13:45;;;;;;;18.15;10.88;;;;;;;1.51;73.74;94191.41;5110501;28;20528;-45
2021/10/27 02:16:11;;;;;;;16.42;10.13;;;;;;;1.47;73.59;94197.03;5110387;28;20099;-45
2021/10/27 02:18:37;;;;;;;10.82;8.75;;;;;;;1.37;73.54;94198.38;5113445;28;20052;-45
2021/10/27 02:21:03;;;;;;;13.73;8.35;;;;;;;1.45;73.69;94207.63;5113638;27;20036;-48
2021/10/27 02:23:28;;;;;;;13.95;8.50;;;;;;;1.53;73.05;94197.88;5114059;28;20023;-46
2021/10/27 02:25:53;;;;;;;9.48;7.85;;;;;;;1.64;72.76;94202.00;5113968;28;20042;-46
2021/10/27 02:28:19;;;;;;;11.50;8.82;;;;;;;1.69;72.32;94204.06;5113941;28;20065;-47
2021/10/27 02:30:45;;;;;;;13.10;9.27;;;;;;;1.74;72.34;94189.75;5113804;28;20476;-46
2021/10/27 02:33:11;;;;;;;12.93;9.40;;;;;;;1.95;72.00;94202.91;5106622;28;20466;-46
2021/10/27 02:35:37;;;;;;;10.57;7.93;;;;;;;1.84;72.10;94210.94;5093426;28;20031;-45
2021/10/27 02:38:02;;;;;;;9.43;6.78;;;;;;;1.57;72.77;94207.81;5093345;28;20052;-47
2021/10/27 02:40:27;;;;;;;13.32;9.13;;;;;;;1.50;72.70;94203.50;5093284;28;20016;-46
2021/10/27 02:42:53;;;;;;;19.27;10.90;;;;;;;1.66;72.57;94204.97;5093220;28;20035;-47
2021/10/27 02:45:18;;;;;;;13.68;9.13;;;;;;;1.80;72.22;94204.22;5093195;28;20020;-49
2021/10/27 02:47:44;;;;;;;18.45;9.77;;;;;;;1.85;71.21;94201.56;5093159;28;20393;-47
2021/10/27 02:50:12;;;;;;;13.48;7.82;;;;;;;1.87;70.93;94193.66;5093060;28;20116;-48
2021/10/27 02:52:37;;;;;;;12.15;7.90;;;;;;;1.71;70.36;94188.72;5093078;28;20028;-47
2021/10/27 02:55:03;;;;;;;8.27;6.78;;;;;;;1.79;71.38;94194.53;5093013;28;20508;-47
2021/10/27 02:57:29;;;;;;;9.35;7.38;;;;;;;1.79;71.04;94198.00;5092894;28;20080;-47
2021/10/27 02:59:54;;;;;;;11.52;8.35;;;;;;;1.64;71.11;94202.75;5092593;28;20069;-46
2021/10/27 03:02:19;;;;;;;14.23;9.82;;;;;;;1.57;71.31;94197.69;5092617;28;20020;-46
2021/10/27 03:04:45;;;;;;;15.55;9.82;;;;;;;1.47;71.04;94199.75;5092478;28;20020;-46
2021/10/27 03:07:10;;;;;;;18.23;11.05;;;;;;;1.48;71.43;94197.78;5092497;28;20077;-47
2021/10/27 03:09:36;;;;;;;20.58;12.00;;;;;;;1.16;71.69;94180.50;5092329;28;20024;-45
2021/10/27 03:12:02;;;;;;;12.98;9.10;;;;;;;1.22;71.24;94200.34;5092415;28;20093;-45
2021/10/27 03:14:28;;;;;;;32.95;12.65;;;;;;;1.14;71.97;94201.97;5092662;28;20023;-48
2021/10/27 03:16:54;;;;;;;10.45;7.18;;;;;;;1.12;71.56;94200.94;5092525;28;20024;-52
2021/10/27 03:19:20;;;;;;;10.35;7.85;;;;;;;1.10;71.59;94204.13;5091796;28;20040;-45
2021/10/27 03:21:45;;;;;;;10.00;8.27;;;;;;;0.94;70.96;94218.19;5092191;28;20035;-45
2021/10/27 03:24:11;;;;;;;9.63;7.88;;;;;;;1.03;70.67;94214.63;5092433;28;20027;-48
2021/10/27 03:26:36;;;;;;;12.45;6.93;;;;;;;1.01;70.87;94212.38;5092159;28;20024;-45
2021/10/27 03:29:02;;;;;;;10.35;7.10;;;;;;;0.93;71.24;94215.94;5095628;28;20016;-45
2021/10/27 03:31:27;;;;;;;24.23;13.65;;;;;;;0.66;72.00;94214.22;5112701;28;20024;-47
2021/10/27 03:33:53;;;;;;;33.08;17.30;;;;;;;0.55;73.13;94230.28;5112601;28;20024;-46
2021/10/27 03:36:19;;;;;;;30.90;17.58;;;;;;;0.76;72.61;94223.78;5112581;28;20026;-45
2021/10/27 03:38:45;;;;;;;27.85;16.27;;;;;;;0.95;72.39;94227.84;5112232;28;20512;-45
2021/10/27 03:41:10;;;;;;;32.40;16.70;;;;;;;0.98;72.64;94220.69;5112516;28;20019;-46
2021/10/27 03:43:36;;;;;;;25.25;14.98;;;;;;;0.97;72.70;94227.38;5111440;28;20454;-46
2021/10/27 03:46:01;;;;;;;23.45;14.93;;;;;;;0.92;71.99;94223.34;5112073;28;20482;-45
2021/10/27 03:48:27;;;;;;;27.52;16.52;;;;;;;0.73;73.30;94225.47;5111672;28;20492;-46
2021/10/27 03:50:52;;;;;;;26.50;15.15;;;;;;;0.59;73.32;94228.16;5112249;28;20047;-46
2021/10/27 03:53:18;;;;;;;17.25;10.52;;;;;;;0.82;71.96;94221.94;5111945;28;20156;-45
2021/10/27 03:55:44;;;;;;;22.52;14.13;;;;;;;0.91;72.05;94223.81;5111900;28;20020;-44
2021/10/27 03:58:09;;;;;;;24.58;14.43;;;;;;;1.00;71.54;94224.44;5112197;28;20047;-45
2021/10/27 04:00:37;;;;;;;28.23;17.63;;;;;;;0.81;71.79;94214.97;5111762;27;20020;-43
2021/10/27 04:03:03;;;;;;;30.27;17.35;;;;;;;0.94;72.30;94211.97;5111791;28;20032;-42
2021/10/27 04:05:28;;;;;;;30.30;17.70;;;;;;;1.02;71.60;94215.84;5111710;28;20028;-44
2021/10/27 04:07:54;;;;;;;32.67;17.73;;;;;;;1.06;71.64;94210.97;5111688;28;20111;-43
2021/10/27 04:10:19;;;;;;;24.10;14.32;;;;;;;1.11;72.01;94211.06;5111616;28;20022;-42
2021/10/27 04:12:44;;;;;;;23.35;14.80;;;;;;;1.13;71.40;94214.06;5111853;28;20034;-44
2021/10/27 04:15:11;;;;;;;23.48;12.98;;;;;;;1.04;72.12;94207.97;5111636;28;20027;-43
2021/10/27 04:17:37;;;;;;;21.88;12.15;;;;;;;1.04;72.63;94213.41;5111157;28;20088;-43
2021/10/27 04:20:05;;;;;;;19.75;12.60;;;;;;;0.92;72.46;94219.84;5111313;28;20052;-43
2021/10/27 04:22:31;;;;;;;20.33;13.05;;;;;;;0.97;73.04;94227.38;5111740;28;20107;-45
2021/10/27 04:24:57;;;;;;;26.30;12.73;;;;;;;0.90;72.78;94217.63;5111578;28;20027;-46
2021/10/27 04:27:22;;;;;;;23.40;14.38;;;;;;;1.16;72.37;94225.97;5111369;28;20545;-44
2021/10/27 04:29:48;;;;;;;21.88;12.98;;;;;;;1.05;72.21;94212.94;5111231;28;20019;-44
2021/10/27 04:32:14;;;;;;;26.45;12.65;;;;;;;1.12;71.88;94225.41;5111526;28;20028;-46
2021/10/27 04:34:39;;;;;;;18.10;11.80;;;;;;;0.91;70.93;94197.34;5111511;28;20024;-45
2021/10/27 04:37:05;;;;;;;19.70;12.50;;;;;;;1.01;70.48;94223.25;5111037;28;20489;-44
2021/10/27 04:39:30;;;;;;;22.02;14.23;;;;;;;1.05;71.13;94223.06;5110704;28;20107;-44
2021/10/27 04:41:56;;;;;;;22.52;13.13;;;;;;;0.94;71.30;94229.06;5111678;28;20080;-42
2021/10/27 04:44:21;;;;;;;29.95;16.65;;;;;;;0.81;71.47;94227.81;5111342;28;20698;-42
2021/10/27 04:46:47;;;;;;;58.88;31.95;;;;;;;0.92;71.48;94236.16;5111059;28;20496;-43
2021/10/27 04:49:12;;;;;;;59.03;31.33;;;;;;;0.87;72.28;94232.13;5110865;28;20496;-44
2021/10/27 04:51:38;;;;;;;38.83;21.67;;;;;;;0.86;72.08;94227.94;5110990;28;20024;-44
2021/10/27 04:54:03;;;;;;;42.78;27.67;;;;;;;0.92;72.60;94236.16;5111146;28;20030;-46
2021/10/27 04:56:30;;;;;;;51.03;28.67;;;;;;;0.96;72.26;94240.22;5110942;28;20468;-45
2021/10/27 04:58:55;;;;;;;41.53;25.00;;;;;;;0.89;72.50;94234.41;5110772;28;20094;-44
2021/10/27 05:01:21;;;;;;;44.20;24.48;;;;;;;0.83;72.86;94253.31;5111098;28;20023;-42
2021/10/27 05:03:46;;;;;;;38.17;22.05;;;;;;;0.78;72.97;94243.06;5110777;28;20030;-42
2021/10/27 05:06:12;;;;;;;42.67;23.17;;;;;;;0.83;73.35;94238.97;5110767;28;20030;-42
2021/10/27 05:08:38;;;;;;;46.80;23.90;;;;;;;0.78;73.65;94245.78;5111096;28;20031;-42
2021/10/27 05:11:04;;;;;;;39.90;22.70;;;;;;;0.65;73.62;94224.31;5109375;28;20530;-42
2021/10/27 05:13:29;;;;;;;53.58;28.73;;;;;;;0.77;74.13;94250.50;5110980;28;20055;-44
2021/10/27 05:15:55;;;;;;;38.67;21.90;;;;;;;0.61;74.35;94233.88;5110935;28;20077;-46
2021/10/27 05:18:20;;;;;;;24.75;15.48;;;;;;;0.81;74.02;94261.19;5106341;28;20019;-44
2021/10/27 05:20:46;;;;;;;23.73;13.65;;;;;;;0.92;74.23;94260.63;5110455;28;20038;-43
2021/10/27 05:23:12;;;;;;;81.25;31.52;;;;;;;1.03;74.42;94260.84;5110422;28;20114;-44
2021/10/27 05:25:38;;;;;;;44.95;22.13;;;;;;;1.11;74.01;94259.25;5110841;28;20023;-43
2021/10/27 05:28:04;;;;;;;56.45;23.48;;;;;;;1.20;73.18;94270.78;5110674;28;20095;-44
2021/10/27 05:30:29;;;;;;;49.90;23.30;;;;;;;1.26;72.78;94270.88;5110434;28;20510;-45
2021/10/27 05:32:58;;;;;;;59.13;26.05;;;;;;;1.27;73.02;94270.44;5110429;28;20024;-47
2021/10/27 05:35:25;;;;;;;62.40;28.02;;;;;;;1.38;72.96;94284.22;5109207;28;20032;-48
2021/10/27 05:37:50;;;;;;;67.15;32.30;;;;;;;1.54;72.60;94274.81;5110687;28;20020;-44
2021/10/27 05:40:16;;;;;;;102.07;43.35;;;;;;;1.54;72.66;94267.41;5110650;28;20027;-45
2021/10/27 05:42:42;;;;;;;135.20;54.55;;;;;;;1.60;72.09;94267.50;5110640;28;20090;-43
2021/10/27 05:45:08;;;;;;;65.88;30.92;;;;;;;1.66;72.65;94292.09;5110258;28;20024;-45
2021/10/27 05:47:34;;;;;;;39.33;21.33;;;;;;;1.70;72.32;94281.75;5110590;28;20019;-44
2021/10/27 05:50:23;;;;;;;29.55;17.65;;;;;;;1.76;71.72;94275.16;5110599;28;20012;-47
2021/10/27 05:55:34;;;;;;;45.28;17.75;;;;;;;1.86;73.25;94286.72;5114537;28;20055;-45
2021/10/27 05:58:03;;;;;;;28.00;20.58;;;;;;;2.08;72.87;94284.31;5114627;28;20073;-45
2021/10/27 06:00:29;;;;;;;25.10;16.65;;;;;;;2.14;72.33;94287.88;5114234;28;20059;-46
2021/10/27 06:02:54;;;;;;;30.35;21.10;;;;;;;2.10;72.52;94295.50;5114458;28;20051;-45
2021/10/27 06:05:20;;;;;;;101.82;57.40;;;;;;;2.21;72.67;94301.09;5114408;28;20651;-47
2021/10/27 06:07:46;;;;;;;120.60;63.55;;;;;;;2.30;71.59;94301.72;5114034;28;20476;-46
2021/10/27 06:10:18;;;;;;;100.68;56.50;;;;;;;2.31;72.32;94305.19;5114233;28;20019;-46
2021/10/27 06:12:44;;;;;;;105.32;55.50;;;;;;;2.23;72.09;94306.84;5113957;28;20507;-47
2021/10/27 06:15:10;;;;;;;75.85;40.80;;;;;;;2.19;72.88;94311.69;5114291;28;20034;-46
2021/10/27 06:17:36;;;;;;;33.90;23.10;;;;;;;1.84;74.25;94317.13;5113457;27;20024;-41
2021/10/27 06:20:02;;;;;;;34.88;19.55;;;;;;;1.92;74.84;94314.78;5113896;28;20036;-44
2021/10/27 06:22:28;;;;;;;45.53;26.75;;;;;;;1.83;76.27;94317.59;5113757;28;20027;-43
2021/10/27 06:24:54;;;;;;;32.85;20.15;;;;;;;2.11;75.85;94318.78;5113713;28;20080;-44
2021/10/27 06:27:20;;;;;;;25.17;17.25;;;;;;;2.35;75.31;94321.34;5112538;28;20023;-44
2021/10/27 06:29:50;;;;;;;22.50;13.95;;;;;;;2.58;75.04;94323.91;5113835;28;20412;-41
2021/10/27 06:32:30;;;;;;;24.85;16.70;;;;;;;2.81;74.19;94322.97;5113600;28;20106;-42
2021/10/27 06:35:04;;;;;;;33.28;20.88;;;;;;;3.15;73.96;94331.53;5109106;28;20468;-42
2021/10/27 06:48:13;;;;;;;33.92;22.30;;;;;;;6.41;64.78;94325.00;5111720;28;20056;-46
2021/10/27 06:50:40;;;;;;;27.65;19.92;;;;;;;8.22;59.58;94321.19;5112508;28;20036;-43
2021/10/27 06:53:06;;;;;;;22.80;16.70;;;;;;;9.81;53.12;94317.25;5112033;28;20035;-43
2021/10/27 06:55:37;;;;;;;15.07;12.00;;;;;;;11.11;49.74;94318.88;5097666;28;20032;-43
2021/10/27 06:58:03;;;;;;;12.75;10.88;;;;;;;12.17;47.28;94313.38;5090116;28;20440;-44
2021/10/27 07:05:48;;;;;;;23.15;16.85;;;;;;;14.89;40.24;94306.50;5109718;28;20171;-47
2021/10/27 07:16:26;;;;;;;11.32;10.13;;;;;;;17.37;34.93;94305.84;5109901;28;20108;-45
2021/10/27 07:18:52;;;;;;;9.23;8.30;;;;;;;17.74;34.09;94301.22;5096617;28;20032;-44
2021/10/27 07:21:18;;;;;;;9.05;8.07;;;;;;;18.28;33.60;94305.59;5089385;28;20118;-45
2021/10/27 07:23:43;;;;;;;10.10;9.10;;;;;;;18.56;31.92;94298.72;5089549;28;20063;-45
2021/10/27 07:26:10;;;;;;;8.90;8.10;;;;;;;18.93;32.16;94303.00;5090330;28;20051;-45
2021/10/27 07:28:36;;;;;;;9.60;7.85;;;;;;;19.44;31.84;94299.19;5094818;28;20046;-44
2021/10/27 07:31:03;;;;;;;8.98;8.18;;;;;;;20.11;30.02;94291.56;5091168;28;20020;-45
2021/10/27 07:33:30;;;;;;;11.18;8.27;;;;;;;20.82;29.42;94286.09;5109182;28;20039;-45
2021/10/27 07:36:07;;;;;;;7.10;6.47;;;;;;;21.20;29.01;94299.28;5109139;28;20043;-44
2021/10/27 07:41:17;;;;;;;5.43;4.10;;;;;;;22.53;25.64;94294.72;5101123;28;20051;-43
2021/10/27 07:43:43;;;;;;;10.75;9.38;;;;;;;22.90;25.36;94303.38;5100523;28;20032;-44
2021/10/27 07:46:09;;;;;;;9.55;5.13;;;;;;;23.23;25.31;94306.13;5103388;28;20485;-42
2021/10/27 07:48:36;;;;;;;7.78;6.97;;;;;;;23.96;23.85;94306.28;5109365;28;20039;-44
2021/10/27 07:51:02;;;;;;;6.80;5.90;;;;;;;24.15;23.87;94305.25;5108004;28;20622;-45
2021/10/27 07:53:28;;;;;;;4.55;3.20;;;;;;;22.74;24.49;94299.56;5107852;28;20063;-44
2021/10/27 07:55:54;;;;;;;4.93;3.88;;;;;;;22.48;25.24;94293.00;5108819;28;20110;-43
2021/10/27 07:58:21;;;;;;;7.13;5.68;;;;;;;22.65;24.75;94297.59;5108664;28;20845;-43
2021/10/27 08:00:48;;;;;;;5.57;4.60;;;;;;;22.09;25.55;94289.06;5108421;28;20039;-43
2021/10/27 08:03:14;;;;;;;5.68;4.80;;;;;;;21.88;26.60;94294.72;5108543;28;20035;-42
2021/10/27 08:05:41;;;;;;;6.03;5.43;;;;;;;22.73;26.64;94289.66;5108650;28;20038;-43
2021/10/27 08:08:08;;;;;;;8.35;6.53;;;;;;;23.31;25.07;94292.50;5108456;28;20096;-43
2021/10/27 08:10:33;;;;;;;12.32;11.02;;;;;;;23.50;24.64;94306.34;5102764;28;20028;-43
2021/10/27 08:13:00;;;;;;;10.85;7.03;;;;;;;23.79;24.42;94295.41;5088230;28;20513;-43
2021/10/27 08:15:26;;;;;;;17.33;14.25;;;;;;;24.09;24.12;94297.19;5085946;28;20031;-43
2021/10/27 08:17:52;;;;;;;7.95;6.93;;;;;;;24.56;23.40;94294.19;5091895;28;20046;-43
2021/10/27 08:20:20;;;;;;;6.70;5.72;;;;;;;24.88;22.36;94289.59;5107854;28;20050;-42
2021/10/27 08:22:48;;;;;;;5.40;4.88;;;;;;;24.09;22.34;94276.72;5108150;28;20039;-45
2021/10/27 08:25:20;;;;;;;24.02;20.17;;;;;;;23.88;24.24;94288.16;5108078;27;20042;-43
2021/10/27 08:27:46;;;;;;;8.32;5.25;;;;;;;24.72;22.37;94276.03;5108332;28;20032;-42
2021/10/27 08:30:13;;;;;;;6.20;5.35;;;;;;;25.03;22.46;94278.44;5108222;28;20726;-42
2021/10/27 08:32:45;;;;;;;7.72;6.93;;;;;;;24.90;22.22;94276.31;5108098;28;20035;-45
2021/10/27 08:35:13;;;;;;;17.00;14.90;;;;;;;25.11;21.93;94270.38;5108693;28;20415;-43
2021/10/27 08:37:46;;;;;;;6.15;5.55;;;;;;;24.37;22.82;94275.47;5108370;28;20469;-45
2021/10/27 08:40:11;;;;;;;20.40;6.70;;;;;;;25.04;22.37;94279.88;5108307;28;20485;-44
2021/10/27 08:42:39;;;;;;;6.75;4.28;;;;;;;24.85;22.11;94271.78;5107814;28;20122;-42
2021/10/27 08:45:05;;;;;;;4.60;3.45;;;;;;;25.06;21.80;94267.97;5107995;28;20038;-43
2021/10/27 08:47:31;;;;;;;6.32;4.93;;;;;;;25.71;21.91;94275.63;5108087;28;20035;-44
2021/10/27 08:49:58;;;;;;;6.03;5.15;;;;;;;26.19;21.51;94278.09;5108050;28;20034;-43
2021/10/27 08:52:24;;;;;;;3.97;3.67;;;;;;;26.33;21.54;94280.16;5105152;28;20036;-45
2021/10/27 08:54:49;;;;;;;5.43;3.10;;;;;;;26.72;20.86;94269.31;5107808;28;20167;-43
2021/10/27 08:57:17;;;;;;;3.30;3.00;;;;;;;26.95;20.11;94266.16;5107638;28;20114;-44
2021/10/27 09:05:00;;;;;;;7.90;5.85;;;;;;;26.44;20.20;94271.53;5108276;28;20036;-45
2021/10/27 09:07:42;;;;;;;5.38;3.63;;;;;;;25.74;21.76;94265.16;5096384;28;20043;-43
2021/10/27 09:14:30;;;;;;;5.60;5.10;;;;;;;26.06;20.76;94266.78;5087140;28;20035;-41
2021/10/27 09:36:14;;;;;;;4.15;3.17;;;;;;;27.32;18.38;94255.09;5112346;28;20080;-44
2021/10/27 09:56:19;;;;;;;6.35;3.97;;;;;;;25.87;21.10;94241.78;5059689;28;20591;-46
2021/10/27 10:04:26;;;;;;;9.50;5.57;;;;;;;26.18;20.26;94236.28;5091372;28;20054;-45
2021/10/27 10:06:53;;;;;;;13.32;5.50;;;;;;;26.61;20.21;94228.44;5103141;28;20534;-45
2021/10/27 10:09:19;;;;;;;9.15;4.20;;;;;;;26.87;20.11;94228.94;5114214;28;20110;-47
2021/10/27 10:11:44;;;;;;;5.93;4.00;;;;;;;27.22;19.84;94228.41;5114289;28;20236;-47
2021/10/27 10:14:12;;;;;;;3.95;3.15;;;;;;;27.22;18.88;94231.22;5114256;28;20092;-46
2021/10/27 10:16:47;;;;;;;6.88;3.92;;;;;;;27.14;20.08;94228.03;5113881;28;20030;-45
2021/10/27 10:19:24;;;;;;;5.05;3.35;;;;;;;27.13;20.70;94226.56;5108752;28;20419;-47
2021/10/27 10:21:51;;;;;;;4.18;3.78;;;;;;;27.69;20.39;94224.13;5106888;28;20156;-46
2021/10/27 10:24:18;;;;;;;8.52;5.57;;;;;;;27.48;20.39;94221.06;5114018;28;20412;-45
2021/10/27 10:26:44;;;;;;;6.05;5.03;;;;;;;27.76;20.02;94211.63;5112096;28;20091;-40
2021/10/27 10:29:10;;;;;;;9.90;4.82;;;;;;;27.25;20.68;94212.91;5106744;28;20028;-46
2021/10/27 10:31:37;;;;;;;5.07;4.55;;;;;;;27.54;20.03;94215.66;5112649;28;20504;-43
2021/10/27 10:34:10;;;;;;;12.65;4.68;;;;;;;27.53;20.32;94223.41;5113963;28;20035;-44
2021/10/27 10:36:40;;;;;;;5.90;4.07;;;;;;;26.68;20.56;94221.66;5113740;28;20111;-44
2021/10/27 10:39:33;;;;;;;4.72;4.25;;;;;;;26.89;21.08;94212.78;5113038;28;20015;-45
2021/10/27 10:42:10;;;;;;;7.32;4.20;;;;;;;26.54;20.62;94212.53;5113754;28;20047;-43
2021/10/27 11:02:30;;;;;;;;;;;;;;;26.23;22.22;94198.28;5113983;28;20061;-44
2021/10/27 11:40:15;;;;;;;8.98;6.40;;;;;;;23.48;25.35;94193.50;5111951;28;20068;-46
2021/10/27 11:42:55;;;;;;;7.25;4.97;;;;;;;22.80;26.41;94195.03;5112581;28;20031;-43
2021/10/27 11:47:59;;;;;;;4.97;4.47;;;;;;;22.11;27.96;94190.03;5110280;28;20034;-41
2021/10/27 11:50:34;;;;;;;5.57;4.63;;;;;;;21.98;28.18;94196.22;5108692;28;20023;-43
2021/10/27 11:53:02;;;;;;;8.82;5.68;;;;;;;21.75;28.38;94191.97;5109898;28;20039;-43
2021/10/27 11:55:30;;;;;;;6.50;4.80;;;;;;;21.46;29.58;94185.84;5109631;28;20023;-44
2021/10/27 11:57:56;;;;;;;6.72;4.75;;;;;;;21.58;28.78;94186.63;5109909;28;20112;-43
2021/10/27 12:00:38;;;;;;;5.70;4.43;;;;;;;21.25;28.99;94179.50;5109471;28;20492;-42
2021/10/27 12:05:44;;;;;;;6.30;4.43;;;;;;;20.77;30.25;94179.78;5109421;28;20072;-42
2021/10/27 12:10:58;;;;;;;7.93;5.35;;;;;;;20.59;30.73;94179.28;5104963;28;20034;-42
2021/10/27 12:16:43;;;;;;;8.63;5.75;;;;;;;20.34;31.09;94170.50;5097826;28;20059;-41
2021/10/27 12:19:25;;;;;;;9.02;6.97;;;;;;;19.95;31.99;94167.06;5093975;28;20151;-38
2021/10/27 12:21:53;;;;;;;15.30;8.05;;;;;;;20.13;32.15;94162.00;5087781;28;20132;-40
2021/10/27 12:24:22;;;;;;;5.97;4.80;;;;;;;20.15;31.56;94164.94;5092866;28;20040;-40
2021/10/27 12:27:02;;;;;;;6.43;4.45;;;;;;;20.32;32.07;94164.75;5107836;28;20437;-40
2021/10/27 12:29:29;;;;;;;4.45;4.05;;;;;;;20.02;32.22;94165.41;5101376;28;20040;-40
2021/10/27 12:32:07;;;;;;;10.05;6.68;;;;;;;19.95;31.58;94163.50;5095206;28;20039;-40
2021/10/27 12:34:44;;;;;;;7.43;5.38;;;;;;;19.86;33.28;94167.09;5099791;28;20051;-40
2021/10/27 12:37:31;;;;;;;12.77;5.95;;;;;;;19.96;32.31;94167.78;5098449;28;20479;-41
2021/10/27 12:40:22;;;;;;;6.00;4.65;;;;;;;19.64;33.49;94163.44;5107052;28;20088;-40
2021/10/27 12:42:58;;;;;;;36.60;7.60;;;;;;;19.36;33.02;94161.41;5102305;28;20054;-39
2021/10/27 12:45:41;;;;;;;21.60;6.40;;;;;;;18.68;34.68;94168.19;5098431;28;20044;-40
2021/10/27 12:48:25;;;;;;;6.05;5.32;;;;;;;18.75;34.71;94170.13;5086771;28;20036;-39
2021/10/27 12:50:55;;;;;;;10.15;6.28;;;;;;;18.53;35.38;94171.97;5086890;28;20024;-39
2021/10/27 12:53:32;;;;;;;8.18;6.18;;;;;;;18.54;35.01;94175.50;5087423;28;20034;-40
2021/10/27 12:56:14;;;;;;;7.72;5.13;;;;;;;18.40;35.08;94171.59;5096518;28;20027;-40
2021/10/27 12:58:49;;;;;;;7.85;5.05;;;;;;;18.41;34.70;94168.22;5107568;28;20401;-40
2021/10/27 13:10:04;;;;;;;10.07;7.50;;;;;;;17.84;35.98;94168.72;5107420;28;20031;-41
2021/10/27 13:30:44;;;;;;;12.02;9.18;;;;;;;17.24;37.62;94166.63;5103136;28;20047;-39
2021/10/27 13:33:10;;;;;;;9.88;8.63;;;;;;;17.03;38.42;94169.09;5085723;28;20020;-40
2021/10/27 13:35:36;;;;;;;18.30;12.70;;;;;;;16.84;38.28;94157.75;5086678;28;20416;-40
2021/10/27 13:38:04;;;;;;;12.48;8.27;;;;;;;16.95;38.09;94168.44;5086809;28;20027;-39
2021/10/27 13:40:31;;;;;;;13.10;9.20;;;;;;;16.61;39.01;94167.06;5090754;28;20031;-40
2021/10/27 14:12:36;;;;;;;18.38;8.82;;;;;;;15.77;39.92;94174.53;5106813;28;20508;-39
2021/10/27 14:15:19;;;;;;;11.23;6.35;;;;;;;15.61;40.92;94177.97;5110417;27;20492;-39
2021/10/27 14:18:37;;;;;;;10.63;6.80;;;;;;;15.57;41.23;94174.84;5105446;28;20057;-41
2021/10/27 14:22:16;;;;;;;9.73;7.43;;;;;;;15.42;41.04;94172.84;5105856;28;20035;-41
2021/10/27 15:19:37;;;;;;;17.08;10.75;;;;;;;13.30;46.52;94201.91;5089242;28;20868;-40
2021/10/27 15:21:28;;;;;;;19.17;9.85;;;;;;;12.99;46.76;94203.03;5097722;28;20594;-40
2021/10/27 15:32:28;;;;;;;16.02;11.13;;;;;;;12.58;48.46;94212.22;5094509;28;20397;-39
2021/10/27 15:35:03;;;;;;;18.73;14.45;;;;;;;12.44;49.38;94219.84;5096372;28;20138;-39
2021/10/27 15:44:00;;;;;;;27.65;18.83;;;;;;;12.01;49.79;94216.91;5075664;28;20046;-40
2021/10/27 15:51:27;;;;;;;21.05;13.38;;;;;;;11.74;49.83;94221.03;5108499;28;20053;-40
2021/10/27 15:53:53;;;;;;;19.73;10.97;;;;;;;11.34;50.74;94234.97;5108602;28;20493;-40
2021/10/27 15:56:20;;;;;;;25.17;11.88;;;;;;;11.48;50.96;94227.38;5108935;28;20944;-40
2021/10/27 15:58:46;;;;;;;22.98;9.90;;;;;;;10.99;51.22;94218.13;5109073;28;20084;-40
2021/10/27 16:01:12;;;;;;;14.63;8.80;;;;;;;11.03;51.69;94246.91;5108469;28;20122;-40
2021/10/27 16:03:37;;;;;;;9.73;8.13;;;;;;;10.91;51.79;94248.41;5108508;28;20103;-39
2021/10/27 16:06:03;;;;;;;9.32;7.30;;;;;;;10.53;52.72;94244.34;5108081;28;20571;-39
2021/10/27 16:08:30;;;;;;;10.82;6.68;;;;;;;10.01;54.60;94255.22;5108139;28;20114;-40
2021/10/27 16:10:56;;;;;;;10.93;8.23;;;;;;;9.88;55.20;94258.69;5108410;28;20416;-40